sensor_id;sensor_type;location;lat;lon;timestamp;P1;durP1;ratioP1;P2;durP2;ratioP2
64457;SDS011;58438;51.200;7.252;2023-02-21T06:45:50;117.68;;;27.10;;
64457;SDS011;58438;51.200;7.252;2023-02-21T10:27:39;62.35;;;14.88;;
64457;SDS011;58438;51.200;7.252;2023-02-21T10:30:28;67.85;;;17.60;;
64457;SDS011;58438;51.200;7.252;2023-02-21T11:08:01;58.25;;;16.13;;
64457;SDS011;58438;51.200;7.252;2023-02-21T11:10:53;63.78;;;16.00;;
64457;SDS011;58438;51.200;7.252;2023-02-21T11:13:41;55.22;;;16.35;;
64457;SDS011;58438;51.200;7.252;2023-02-21T11:16:29;62.55;;;17.90;;
64457;SDS011;58438;51.200;7.252;2023-02-21T11:19:21;56.53;;;16.70;;
64457;SDS011;58438;51.200;7.252;2023-02-21T11:22:09;81.97;;;22.95;;
64457;SDS011;58438;51.200;7.252;2023-02-21T11:24:59;91.95;;;26.48;;
64457;SDS011;58438;51.200;7.252;2023-02-21T11:28:01;93.50;;;25.77;;
64457;SDS011;58438;51.200;7.252;2023-02-21T11:30:50;92.18;;;25.20;;
64457;SDS011;58438;51.200;7.252;2023-02-21T11:33:49;88.97;;;25.40;;
64457;SDS011;58438;51.200;7.252;2023-02-21T11:36:39;102.35;;;25.70;;
64457;SDS011;58438;51.200;7.252;2023-02-21T11:39:30;99.88;;;26.25;;
64457;SDS011;58438;51.200;7.252;2023-02-21T11:42:25;95.47;;;26.67;;
64457;SDS011;58438;51.200;7.252;2023-02-21T11:45:16;103.15;;;25.65;;
64457;SDS011;58438;51.200;7.252;2023-02-21T11:48:10;105.15;;;27.35;;
64457;SDS011;58438;51.200;7.252;2023-02-21T11:51:03;108.80;;;27.45;;
64457;SDS011;58438;51.200;7.252;2023-02-21T11:53:56;98.72;;;26.38;;
64457;SDS011;58438;51.200;7.252;2023-02-21T11:56:46;94.18;;;26.58;;
64457;SDS011;58438;51.200;7.252;2023-02-21T11:59:37;93.57;;;25.13;;
64457;SDS011;58438;51.200;7.252;2023-02-21T12:02:33;97.78;;;25.75;;
64457;SDS011;58438;51.200;7.252;2023-02-21T12:05:34;103.10;;;27.87;;
64457;SDS011;58438;51.200;7.252;2023-02-21T12:08:35;109.05;;;29.60;;
64457;SDS011;58438;51.200;7.252;2023-02-21T12:11:30;115.50;;;29.45;;
64457;SDS011;58438;51.200;7.252;2023-02-21T12:14:25;121.05;;;30.55;;
64457;SDS011;58438;51.200;7.252;2023-02-21T12:17:20;129.35;;;31.13;;
64457;SDS011;58438;51.200;7.252;2023-02-21T12:20:25;121.40;;;29.33;;
64457;SDS011;58438;51.200;7.252;2023-02-21T12:23:15;134.98;;;31.48;;
64457;SDS011;58438;51.200;7.252;2023-02-21T12:26:10;112.97;;;29.98;;
64457;SDS011;58438;51.200;7.252;2023-02-21T12:29:02;136.50;;;32.15;;
64457;SDS011;58438;51.200;7.252;2023-02-21T12:31:57;127.40;;;33.20;;
64457;SDS011;58438;51.200;7.252;2023-02-21T12:34:53;96.50;;;31.13;;
64457;SDS011;58438;51.200;7.252;2023-02-21T12:37:43;78.88;;;22.33;;
64457;SDS011;58438;51.200;7.252;2023-02-21T12:40:34;71.30;;;20.48;;
64457;SDS011;58438;51.200;7.252;2023-02-21T12:43:25;65.93;;;20.40;;
64457;SDS011;58438;51.200;7.252;2023-02-21T12:46:17;75.72;;;20.73;;
64457;SDS011;58438;51.200;7.252;2023-02-21T12:49:08;68.15;;;20.58;;
64457;SDS011;58438;51.200;7.252;2023-02-21T12:51:57;77.43;;;22.00;;
64457;SDS011;58438;51.200;7.252;2023-02-21T12:54:48;66.13;;;20.10;;
64457;SDS011;58438;51.200;7.252;2023-02-21T12:57:38;76.88;;;22.42;;
64457;SDS011;58438;51.200;7.252;2023-02-21T13:00:30;70.53;;;21.20;;
64457;SDS011;58438;51.200;7.252;2023-02-21T13:09:09;74.88;;;18.83;;
64457;SDS011;58438;51.200;7.252;2023-02-21T13:12:04;68.90;;;19.80;;
64457;SDS011;58438;51.200;7.252;2023-02-21T13:14:54;71.40;;;20.95;;
64457;SDS011;58438;51.200;7.252;2023-02-21T13:17:48;77.32;;;21.25;;
64457;SDS011;58438;51.200;7.252;2023-02-21T13:20:45;66.57;;;19.67;;
64457;SDS011;58438;51.200;7.252;2023-02-21T13:23:41;65.90;;;21.50;;
64457;SDS011;58438;51.200;7.252;2023-02-21T13:26:40;77.80;;;20.10;;
64457;SDS011;58438;51.200;7.252;2023-02-21T13:29:36;72.60;;;20.63;;
64457;SDS011;58438;51.200;7.252;2023-02-21T13:32:26;83.90;;;24.27;;
64457;SDS011;58438;51.200;7.252;2023-02-21T13:35:17;83.22;;;22.42;;
64457;SDS011;58438;51.200;7.252;2023-02-21T13:38:06;77.50;;;21.42;;
64457;SDS011;58438;51.200;7.252;2023-02-21T13:41:01;90.03;;;21.60;;
64457;SDS011;58438;51.200;7.252;2023-02-21T13:43:50;87.85;;;22.60;;
64457;SDS011;58438;51.200;7.252;2023-02-21T13:49:51;93.72;;;24.15;;
64457;SDS011;58438;51.200;7.252;2023-02-21T13:52:52;100.50;;;23.65;;
64457;SDS011;58438;51.200;7.252;2023-02-21T13:55:41;97.68;;;26.13;;
64457;SDS011;58438;51.200;7.252;2023-02-21T13:58:50;96.47;;;24.38;;
64457;SDS011;58438;51.200;7.252;2023-02-21T14:01:39;91.43;;;25.50;;
64457;SDS011;58438;51.200;7.252;2023-02-21T14:07:44;76.70;;;20.90;;
64457;SDS011;58438;51.200;7.252;2023-02-21T14:10:35;86.68;;;23.42;;
64457;SDS011;58438;51.200;7.252;2023-02-21T14:13:29;80.60;;;23.35;;
64457;SDS011;58438;51.200;7.252;2023-02-21T14:16:21;73.20;;;21.67;;
64457;SDS011;58438;51.200;7.252;2023-02-21T14:19:10;74.47;;;20.67;;
64457;SDS011;58438;51.200;7.252;2023-02-21T14:21:58;89.97;;;23.67;;
64457;SDS011;58438;51.200;7.252;2023-02-21T14:24:49;72.25;;;21.90;;
64457;SDS011;58438;51.200;7.252;2023-02-21T14:27:38;77.40;;;20.63;;
64457;SDS011;58438;51.200;7.252;2023-02-21T14:30:30;64.45;;;19.58;;
64457;SDS011;58438;51.200;7.252;2023-02-21T14:33:21;82.63;;;22.95;;
64457;SDS011;58438;51.200;7.252;2023-02-21T14:36:09;78.03;;;20.77;;
64457;SDS011;58438;51.200;7.252;2023-02-21T14:38:59;83.80;;;22.88;;
64457;SDS011;58438;51.200;7.252;2023-02-21T14:41:53;67.75;;;20.60;;
64457;SDS011;58438;51.200;7.252;2023-02-21T14:44:47;86.75;;;21.92;;
64457;SDS011;58438;51.200;7.252;2023-02-21T14:47:43;79.97;;;24.38;;
64457;SDS011;58438;51.200;7.252;2023-02-21T14:50:37;84.40;;;25.08;;
64457;SDS011;58438;51.200;7.252;2023-02-21T14:56:50;90.65;;;25.30;;
64457;SDS011;58438;51.200;7.252;2023-02-21T14:59:59;91.18;;;23.85;;
64457;SDS011;58438;51.200;7.252;2023-02-21T15:02:53;86.50;;;24.23;;
64457;SDS011;58438;51.200;7.252;2023-02-21T15:05:44;79.10;;;22.45;;
64457;SDS011;58438;51.200;7.252;2023-02-21T15:08:38;74.53;;;23.25;;
64457;SDS011;58438;51.200;7.252;2023-02-21T15:11:26;79.40;;;22.35;;
64457;SDS011;58438;51.200;7.252;2023-02-21T15:14:16;83.38;;;21.90;;
64457;SDS011;58438;51.200;7.252;2023-02-21T15:17:10;73.75;;;23.70;;
64457;SDS011;58438;51.200;7.252;2023-02-21T15:20:03;79.32;;;21.17;;
64457;SDS011;58438;51.200;7.252;2023-02-21T15:22:56;82.80;;;22.70;;
64457;SDS011;58438;51.200;7.252;2023-02-21T15:25:43;101.57;;;31.67;;
64457;SDS011;58438;51.200;7.252;2023-02-21T15:28:31;107.57;;;32.38;;
64457;SDS011;58438;51.200;7.252;2023-02-21T15:31:18;106.80;;;31.48;;
64457;SDS011;58438;51.200;7.252;2023-02-21T15:34:11;107.50;;;31.83;;
64457;SDS011;58438;51.200;7.252;2023-02-21T15:37:06;104.63;;;32.63;;
64457;SDS011;58438;51.200;7.252;2023-02-21T15:39:57;101.38;;;32.70;;
64457;SDS011;58438;51.200;7.252;2023-02-21T15:42:45;98.43;;;30.45;;
64457;SDS011;58438;51.200;7.252;2023-02-21T15:45:34;101.83;;;31.30;;
64457;SDS011;58438;51.200;7.252;2023-02-21T15:48:22;101.50;;;30.55;;
64457;SDS011;58438;51.200;7.252;2023-02-21T15:51:10;102.97;;;30.90;;
64457;SDS011;58438;51.200;7.252;2023-02-21T15:54:22;101.78;;;30.73;;
64457;SDS011;58438;51.200;7.252;2023-02-21T15:57:19;106.13;;;31.40;;
64457;SDS011;58438;51.200;7.252;2023-02-21T16:58:39;85.93;;;22.38;;
64457;SDS011;58438;51.200;7.252;2023-02-21T17:01:28;87.85;;;21.58;;
64457;SDS011;58438;51.200;7.252;2023-02-21T17:04:16;88.68;;;24.00;;
64457;SDS011;58438;51.200;7.252;2023-02-21T17:07:03;83.55;;;21.92;;
64457;SDS011;58438;51.200;7.252;2023-02-21T17:09:54;76.43;;;22.75;;
64457;SDS011;58438;51.200;7.252;2023-02-21T17:12:41;91.15;;;24.13;;
64457;SDS011;58438;51.200;7.252;2023-02-21T17:15:29;92.03;;;24.05;;
64457;SDS011;58438;51.200;7.252;2023-02-21T17:18:17;98.25;;;25.73;;
64457;SDS011;58438;51.200;7.252;2023-02-21T17:21:04;101.03;;;25.55;;
64457;SDS011;58438;51.200;7.252;2023-02-21T17:23:51;101.35;;;25.27;;
64457;SDS011;58438;51.200;7.252;2023-02-21T17:26:39;108.65;;;26.25;;
64457;SDS011;58438;51.200;7.252;2023-02-21T17:29:27;109.22;;;27.42;;
64457;SDS011;58438;51.200;7.252;2023-02-21T17:32:16;114.75;;;28.33;;
64457;SDS011;58438;51.200;7.252;2023-02-21T17:35:04;141.98;;;38.70;;
64457;SDS011;58438;51.200;7.252;2023-02-21T17:37:51;114.63;;;29.48;;
64457;SDS011;58438;51.200;7.252;2023-02-21T17:40:39;105.38;;;28.55;;
64457;SDS011;58438;51.200;7.252;2023-02-21T17:43:26;105.03;;;27.70;;
64457;SDS011;58438;51.200;7.252;2023-02-21T17:46:14;96.90;;;25.08;;
64457;SDS011;58438;51.200;7.252;2023-02-21T17:49:03;99.82;;;26.00;;
64457;SDS011;58438;51.200;7.252;2023-02-21T17:51:50;95.55;;;26.77;;
64457;SDS011;58438;51.200;7.252;2023-02-21T17:54:38;99.45;;;24.35;;
64457;SDS011;58438;51.200;7.252;2023-02-21T17:57:25;104.25;;;28.48;;
64457;SDS011;58438;51.200;7.252;2023-02-21T18:00:16;102.15;;;25.92;;
64457;SDS011;58438;51.200;7.252;2023-02-21T18:03:05;146.35;;;38.13;;
64457;SDS011;58438;51.200;7.252;2023-02-21T18:05:55;122.68;;;29.92;;
64457;SDS011;58438;51.200;7.252;2023-02-21T18:08:44;97.32;;;24.42;;
64457;SDS011;58438;51.200;7.252;2023-02-21T18:11:32;141.40;;;35.53;;
64457;SDS011;58438;51.200;7.252;2023-02-21T18:14:21;103.47;;;27.50;;
64457;SDS011;58438;51.200;7.252;2023-02-21T18:17:10;98.82;;;28.48;;
64457;SDS011;58438;51.200;7.252;2023-02-21T18:19:58;99.47;;;24.90;;
64457;SDS011;58438;51.200;7.252;2023-02-21T18:22:47;99.28;;;23.45;;
64457;SDS011;58438;51.200;7.252;2023-02-21T18:25:35;146.52;;;35.17;;
64457;SDS011;58438;51.200;7.252;2023-02-21T18:28:23;150.40;;;39.55;;
64457;SDS011;58438;51.200;7.252;2023-02-21T18:31:13;105.93;;;27.25;;
64457;SDS011;58438;51.200;7.252;2023-02-21T18:34:02;100.88;;;25.88;;
64457;SDS011;58438;51.200;7.252;2023-02-21T18:36:53;103.55;;;27.70;;
64457;SDS011;58438;51.200;7.252;2023-02-21T18:39:42;104.75;;;25.90;;
64457;SDS011;58438;51.200;7.252;2023-02-21T18:42:29;88.38;;;26.95;;
64457;SDS011;58438;51.200;7.252;2023-02-21T18:45:17;94.90;;;24.30;;
64457;SDS011;58438;51.200;7.252;2023-02-21T18:48:04;95.80;;;24.17;;
64457;SDS011;58438;51.200;7.252;2023-02-21T18:50:52;143.83;;;34.90;;
64457;SDS011;58438;51.200;7.252;2023-02-21T18:53:41;153.27;;;36.88;;
64457;SDS011;58438;51.200;7.252;2023-02-21T18:56:30;157.82;;;36.65;;
64457;SDS011;58438;51.200;7.252;2023-02-21T18:59:19;160.75;;;37.97;;
64457;SDS011;58438;51.200;7.252;2023-02-21T19:02:08;145.93;;;37.08;;
64457;SDS011;58438;51.200;7.252;2023-02-21T19:04:59;154.07;;;36.83;;
64457;SDS011;58438;51.200;7.252;2023-02-21T19:07:46;162.25;;;38.65;;
64457;SDS011;58438;51.200;7.252;2023-02-21T19:10:34;167.70;;;39.15;;
64457;SDS011;58438;51.200;7.252;2023-02-21T19:13:23;163.98;;;38.78;;
64457;SDS011;58438;51.200;7.252;2023-02-21T19:16:10;166.73;;;38.90;;
64457;SDS011;58438;51.200;7.252;2023-02-21T19:18:58;168.00;;;38.13;;
64457;SDS011;58438;51.200;7.252;2023-02-21T19:21:47;169.70;;;37.17;;
64457;SDS011;58438;51.200;7.252;2023-02-21T19:24:35;173.85;;;39.25;;
64457;SDS011;58438;51.200;7.252;2023-02-21T19:27:23;202.63;;;39.30;;
64457;SDS011;58438;51.200;7.252;2023-02-21T19:30:12;175.57;;;38.28;;
64457;SDS011;58438;51.200;7.252;2023-02-21T19:33:04;187.57;;;39.40;;
64457;SDS011;58438;51.200;7.252;2023-02-21T19:35:53;154.48;;;36.10;;
64457;SDS011;58438;51.200;7.252;2023-02-21T19:38:41;158.67;;;35.53;;
64457;SDS011;58438;51.200;7.252;2023-02-21T19:41:28;152.27;;;36.00;;
64457;SDS011;58438;51.200;7.252;2023-02-21T19:44:15;149.60;;;35.00;;
64457;SDS011;58438;51.200;7.252;2023-02-21T19:47:04;133.18;;;32.80;;
64457;SDS011;58438;51.200;7.252;2023-02-21T19:49:52;156.68;;;34.72;;
64457;SDS011;58438;51.200;7.252;2023-02-21T19:52:39;190.73;;;35.30;;
64457;SDS011;58438;51.200;7.252;2023-02-21T19:55:27;150.43;;;32.33;;
64457;SDS011;58438;51.200;7.252;2023-02-21T19:58:16;145.00;;;30.38;;
64457;SDS011;58438;51.200;7.252;2023-02-21T20:01:04;154.52;;;31.20;;
64457;SDS011;58438;51.200;7.252;2023-02-21T20:03:54;143.30;;;30.23;;
64457;SDS011;58438;51.200;7.252;2023-02-21T20:06:42;130.65;;;29.90;;
64457;SDS011;58438;51.200;7.252;2023-02-21T20:09:29;127.40;;;30.02;;
64457;SDS011;58438;51.200;7.252;2023-02-21T20:12:17;154.38;;;29.63;;
64457;SDS011;58438;51.200;7.252;2023-02-21T20:15:07;160.02;;;32.33;;
64457;SDS011;58438;51.200;7.252;2023-02-21T20:17:56;133.05;;;31.17;;
64457;SDS011;58438;51.200;7.252;2023-02-21T20:20:44;137.73;;;30.55;;
64457;SDS011;58438;51.200;7.252;2023-02-21T20:23:34;149.13;;;32.13;;
64457;SDS011;58438;51.200;7.252;2023-02-21T20:26:22;151.07;;;30.60;;
64457;SDS011;58438;51.200;7.252;2023-02-21T20:29:10;133.07;;;30.63;;
64457;SDS011;58438;51.200;7.252;2023-02-21T20:31:57;174.00;;;32.70;;
64457;SDS011;58438;51.200;7.252;2023-02-21T20:34:45;120.47;;;30.73;;
64457;SDS011;58438;51.200;7.252;2023-02-21T20:37:34;141.02;;;29.52;;
64457;SDS011;58438;51.200;7.252;2023-02-21T20:40:22;124.18;;;28.60;;
64457;SDS011;58438;51.200;7.252;2023-02-21T20:43:10;117.68;;;29.27;;
64457;SDS011;58438;51.200;7.252;2023-02-21T20:45:58;128.85;;;28.98;;
64457;SDS011;58438;51.200;7.252;2023-02-21T20:48:45;129.35;;;29.10;;
64457;SDS011;58438;51.200;7.252;2023-02-21T20:51:34;146.63;;;28.73;;
64457;SDS011;58438;51.200;7.252;2023-02-21T20:54:25;142.83;;;28.80;;
64457;SDS011;58438;51.200;7.252;2023-02-21T20:57:13;143.23;;;28.55;;
64457;SDS011;58438;51.200;7.252;2023-02-21T21:00:00;121.68;;;25.00;;
64457;SDS011;58438;51.200;7.252;2023-02-21T21:02:48;109.87;;;23.17;;
64457;SDS011;58438;51.200;7.252;2023-02-21T21:05:36;92.22;;;22.48;;
64457;SDS011;58438;51.200;7.252;2023-02-21T21:08:23;80.72;;;20.85;;
64457;SDS011;58438;51.200;7.252;2023-02-21T21:11:13;84.93;;;20.48;;
64457;SDS011;58438;51.200;7.252;2023-02-21T21:14:01;86.53;;;20.55;;
64457;SDS011;58438;51.200;7.252;2023-02-21T21:16:48;86.25;;;21.35;;
64457;SDS011;58438;51.200;7.252;2023-02-21T21:19:37;68.57;;;20.95;;
64457;SDS011;58438;51.200;7.252;2023-02-21T21:22:26;63.53;;;19.10;;
64457;SDS011;58438;51.200;7.252;2023-02-21T21:25:14;63.20;;;18.83;;
64457;SDS011;58438;51.200;7.252;2023-02-21T21:28:04;53.00;;;19.88;;
64457;SDS011;58438;51.200;7.252;2023-02-21T21:30:52;51.75;;;18.60;;
64457;SDS011;58438;51.200;7.252;2023-02-21T21:33:39;56.10;;;18.23;;
64457;SDS011;58438;51.200;7.252;2023-02-21T21:36:27;50.80;;;18.52;;
64457;SDS011;58438;51.200;7.252;2023-02-21T21:39:14;57.90;;;18.15;;
64457;SDS011;58438;51.200;7.252;2023-02-21T21:42:03;56.45;;;18.45;;
64457;SDS011;58438;51.200;7.252;2023-02-21T21:44:55;52.97;;;19.45;;
64457;SDS011;58438;51.200;7.252;2023-02-21T21:47:43;53.25;;;19.33;;
64457;SDS011;58438;51.200;7.252;2023-02-21T21:50:31;55.38;;;19.63;;
64457;SDS011;58438;51.200;7.252;2023-02-21T21:53:19;50.50;;;19.45;;
64457;SDS011;58438;51.200;7.252;2023-02-21T21:56:06;40.30;;;16.02;;
64457;SDS011;58438;51.200;7.252;2023-02-21T21:58:56;37.97;;;12.95;;
64457;SDS011;58438;51.200;7.252;2023-02-21T22:01:45;35.33;;;12.95;;
64457;SDS011;58438;51.200;7.252;2023-02-21T22:04:33;38.30;;;13.93;;
64457;SDS011;58438;51.200;7.252;2023-02-21T22:07:21;35.88;;;13.07;;
64457;SDS011;58438;51.200;7.252;2023-02-21T22:10:09;35.50;;;13.80;;
64457;SDS011;58438;51.200;7.252;2023-02-21T22:15:45;36.63;;;12.68;;
64457;SDS011;58438;51.200;7.252;2023-02-21T22:18:34;32.03;;;12.35;;
64457;SDS011;58438;51.200;7.252;2023-02-21T22:21:22;36.08;;;13.15;;
64457;SDS011;58438;51.200;7.252;2023-02-21T22:24:09;37.35;;;13.63;;
64457;SDS011;58438;51.200;7.252;2023-02-21T22:27:00;40.47;;;14.38;;
64457;SDS011;58438;51.200;7.252;2023-02-21T22:29:48;44.75;;;16.00;;
64457;SDS011;58438;51.200;7.252;2023-02-21T22:32:35;71.75;;;24.92;;
64457;SDS011;58438;51.200;7.252;2023-02-21T22:35:24;90.82;;;28.38;;
64457;SDS011;58438;51.200;7.252;2023-02-21T22:38:13;94.68;;;29.67;;
64457;SDS011;58438;51.200;7.252;2023-02-21T22:41:02;98.50;;;30.23;;
64457;SDS011;58438;51.200;7.252;2023-02-21T22:43:50;94.47;;;31.77;;
64457;SDS011;58438;51.200;7.252;2023-02-21T22:46:39;99.95;;;30.42;;
64457;SDS011;58438;51.200;7.252;2023-02-21T22:49:28;116.45;;;33.50;;
64457;SDS011;58438;51.200;7.252;2023-02-21T22:52:17;110.13;;;32.42;;
64457;SDS011;58438;51.200;7.252;2023-02-21T22:55:05;102.22;;;31.45;;
64457;SDS011;58438;51.200;7.252;2023-02-21T22:57:54;67.85;;;20.95;;
64457;SDS011;58438;51.200;7.252;2023-02-21T23:00:41;64.25;;;21.88;;
64457;SDS011;58438;51.200;7.252;2023-02-21T23:03:29;54.80;;;19.25;;
64457;SDS011;58438;51.200;7.252;2023-02-21T23:06:16;65.65;;;21.23;;
64457;SDS011;58438;51.200;7.252;2023-02-21T23:09:05;60.88;;;20.65;;
64457;SDS011;58438;51.200;7.252;2023-02-21T23:34:22;65.03;;;18.70;;
64457;SDS011;58438;51.200;7.252;2023-02-21T23:37:24;73.10;;;19.75;;
64457;SDS011;58438;51.200;7.252;2023-02-21T23:40:12;66.00;;;22.08;;
64457;SDS011;58438;51.200;7.252;2023-02-21T23:43:03;77.90;;;22.95;;
64457;SDS011;58438;51.200;7.252;2023-02-21T23:45:55;63.10;;;21.38;;
64457;SDS011;58438;51.200;7.252;2023-02-21T23:48:43;68.90;;;20.80;;
64457;SDS011;58438;51.200;7.252;2023-02-21T23:51:30;72.15;;;22.20;;
64457;SDS011;58438;51.200;7.252;2023-02-21T23:54:18;91.95;;;21.77;;
64457;SDS011;58438;51.200;7.252;2023-02-21T23:57:05;145.73;;;35.67;;
64457;SDS011;58438;51.200;7.252;2023-02-21T23:59:54;140.02;;;37.40;;
